Terminal Aerodrome Forecast
Issued by NWS

Home | Current Version | Previous Version | Graphics & Text | Print | Product List | Glossary On
Versions: 1 2 3 4 5 6 7 8 9 10 11 12 13 14 15 16 17 18 19 20 21
000
FTUS43 KLSX 132320
TAFSUS
TAF
KSUS 132320Z 1400/1424 07006KT 6SM -FZRA OVC012
     FM140200 07006KT 5SM BR VCSH OVC008
     FM140800 06004KT 3SM -FZRA BR OVC005
     FM141300 01004KT 3SM BR VCSH OVC004
     FM141600 36005KT 5SM BR OVC008=

USA.gov is the U.S. government's official web portal to all federal, state and local government web resources and services.